Ash Springs, Nevada
Current Conditions -  °F | °C
As of 2:35 PM on Sunday 23 Nov 2014 (Local Time) from KSGU Reporting Station
Clear Clear  
Wind Chill: 57°   Ceiling: Unl
Heat Index: 57°   Visibility: 10mi
Dew Point: 12°   Wind: 9mph
Humidity: 17%   Direction: 40°NE
Pressure: 30.22"   Gusts: NA
Location:  37.6°N, 114.8°W
Report Text: KSGU 232235Z AUTO 04008KT 10SM CLR 14/M11 A3022 RMK AO1
Loading
Personal Weather Stations






























Interactive Weather Map New forecast layout! Learn more

10-Day Weather Forecast

Advertisements
Track Severe Weather on mobile